Latest Weather Observations for Cairns

IDQ60801

Issued at 8:05 am EST Saturday 26 July 2014 (issued every 30 minutes, with the page automatically refreshed every 10 minutes)

About weather observations | Map of weather stations | Latest weather observations for QLD | Other Formats
Station Details ID: 031011 Name: CAIRNS AERO Lat: -16.87 Lon: 145.75 Height: 2.22 m
Data from the previous 72 hours. | See also: Recent months at Cairns
Date/Time
EST
Temp
°C
App
Temp
°C
Dew
Point
Rel
Hum
%
Delta-T
°C
Wind Press
QNH
hPa
Press
MSL
hPa
Rain
since 9 am
mm
Dir
 
Spd
km/h
Gust
km/h
Spd
kts
Gust
kts
26/08:00am 21.3 19.8 17.6 79 2.3 S 22 33 12 18 1021.8 - 2.0
26/07:50am 20.5 19.1 17.9 85 1.6 S 22 37 12 20 1021.8 - 2.0
26/07:30am 20.3 19.4 17.7 85 1.6 S 19 32 10 17 1021.6 - 2.0
26/07:00am 20.4 19.3 17.3 82 1.9 S 19 32 10 17 1021.3 - 2.0
26/06:30am 20.1 18.4 17.3 84 1.7 S 22 35 12 19 1021.1 - 2.0
26/06:00am 19.5 18.7 17.9 90 1.0 SSE 19 30 10 16 1021.0 1020.9 2.0
26/05:30am 19.8 19.2 17.5 86 1.4 SSE 17 22 9 12 1020.7 - 1.8
26/05:00am 20.2 19.4 17.2 83 1.8 S 17 24 9 13 1020.5 - 1.8
26/04:30am 19.7 19.0 17.4 86 1.4 S 17 26 9 14 1020.5 - 1.8
26/04:00am 19.7 19.5 17.7 88 1.2 S 15 28 8 15 1020.3 - 1.8
26/03:30am 19.2 17.5 18.1 93 0.7 S 24 37 13 20 1020.6 - 1.4
26/03:00am 19.7 18.0 18.2 91 0.9 S 24 35 13 19 1020.7 1020.6 1.4
26/02:42am 19.7 18.9 17.9 89 1.1 S 19 35 10 19 1020.8 - 1.4
26/02:30am 19.5 18.1 18.9 96 0.4 SSE 24 35 13 19 1020.9 - 1.4
26/02:23am 19.6 18.7 19.0 96 0.4 SSE 22 32 12 17 1021.2 - 1.0
26/02:00am 20.0 18.8 18.4 90 1.0 S 22 33 12 18 1020.8 - 0.4
26/01:30am 20.5 18.5 18.2 87 1.4 S 26 35 14 19 1020.9 - 0.4
26/01:00am 20.4 19.4 18.0 86 1.5 S 20 32 11 17 1021.4 - 0.4
26/12:30am 20.5 19.6 18.1 86 1.5 SSE 20 30 11 16 1021.5 - 0.4
26/12:00am 21.0 20.8 18.4 85 1.6 S 17 26 9 14 1021.8 1021.7 0.4
 
Date/Time
EST
Temp
°C
App
Temp
°C
Dew
Point
Rel
Hum
%
Delta-T
°C
Wind Press
QNH
hPa
Press
MSL
hPa
Rain
since 9 am
mm
Dir
 
Spd
km/h
Gust
km/h
Spd
kts
Gust
kts
25/11:30pm 21.0 20.5 17.9 82 1.9 S 17 24 9 13 1022.2 - 0.4
25/11:00pm 20.9 20.1 18.0 83 1.8 S 19 28 10 15 1022.1 - 0.4
25/10:30pm 20.7 20.3 18.1 85 1.6 S 17 28 9 15 1022.2 - 0.4
25/10:00pm 20.8 21.4 18.6 87 1.4 SSE 13 19 7 10 1022.4 - 0.4
25/09:30pm 20.2 20.6 18.1 88 1.3 SSE 13 17 7 9 1022.2 - 0.4
25/09:00pm 21.2 20.5 17.4 79 2.3 SE 17 19 9 10 1021.9 1021.8 0.2
25/08:30pm 21.5 20.7 17.1 76 2.7 SSE 17 26 9 14 1021.5 - 0.2
25/08:00pm 21.5 21.2 17.4 77 2.5 SSE 15 19 8 10 1021.4 - 0.2
25/07:30pm 22.1 21.3 17.0 73 3.1 SSE 17 26 9 14 1020.8 - 0.2
25/07:00pm 22.1 22.1 17.2 74 3.0 S 13 19 7 10 1020.3 - 0.2
25/06:30pm 22.3 22.1 17.6 75 2.9 S 15 20 8 11 1019.9 - 0.2
25/06:00pm 22.7 22.4 17.3 71 3.3 S 15 22 8 12 1019.7 1019.6 0.2
25/05:30pm 22.8 23.1 17.8 73 3.1 S 13 24 7 13 1019.4 - 0.2
25/05:00pm 23.0 22.3 17.3 70 3.5 S 17 26 9 14 1019.4 - 0.2
25/04:30pm 23.9 22.2 17.1 65 4.2 SSE 22 26 12 14 1019.0 - 0.2
25/04:00pm 24.5 23.1 17.0 63 4.6 ESE 20 32 11 17 1018.7 - 0.2
25/03:30pm 24.9 22.3 15.8 57 5.5 ESE 24 33 13 18 1018.6 - 0.2
25/03:00pm 25.8 23.7 16.3 55 5.8 ESE 22 33 12 18 1018.6 1018.5 0.2
25/02:30pm 25.6 23.8 17.0 59 5.3 E 22 30 12 16 1018.7 - 0.2
25/02:00pm 25.2 24.1 17.7 63 4.7 E 20 30 11 16 1018.9 - 0.2
25/01:30pm 25.5 22.8 16.7 58 5.4 E 26 33 14 18 1019.1 - 0.2
25/01:00pm 25.3 23.6 17.2 61 5.0 E 22 28 12 15 1019.4 - 0.2
25/12:30pm 24.5 23.0 17.6 65 4.3 ESE 22 33 12 18 1019.8 - 0.0
25/12:00pm 24.5 23.8 17.4 64 4.4 ESE 17 26 9 14 1020.2 1020.1 0.0
25/11:30am 22.7 23.1 19.9 84 1.8 SSE 17 24 9 13 1020.5 - 0.0
25/11:19am 23.1 22.3 18.5 75 2.9 ESE 20 30 11 16 1020.6 - 0.0
25/11:00am 24.4 24.7 19.6 74 3.1 SSE 17 26 9 14 1020.6 - 0.0
25/10:30am 24.1 23.8 19.2 74 3.1 SSE 19 26 10 14 1020.6 - 0.0
25/10:00am 24.0 24.3 19.5 76 2.9 SSE 17 24 9 13 1020.5 - 0.0
25/09:30am 22.5 22.4 18.8 79 2.3 S 17 28 9 15 1020.5 - 0.0
25/09:00am 22.0 22.7 18.8 82 2.0 SSW 13 19 7 10 1020.4 1020.3 1.0
25/08:46am 21.2 21.9 18.8 86 1.5 S 13 20 7 11 1020.4 - 1.0
25/08:30am 20.4 20.7 18.8 90 1.0 SSE 15 19 8 10 1020.5 - 0.8
25/08:00am 21.1 22.0 18.5 85 1.6 SE 11 19 6 10 1019.9 - 0.4
25/07:30am 20.1 21.0 18.5 90 1.0 S 11 19 6 10 1019.7 - 0.4
25/07:20am 19.6 19.8 18.5 93 0.7 SSE 15 19 8 10 1019.7 - 0.4
25/07:00am 19.6 19.4 18.6 94 0.6 SSE 17 19 9 10 1019.4 - 0.2
25/06:50am 19.5 19.0 18.7 95 0.5 SE 19 26 10 14 1019.2 - 0.2
25/06:40am 20.2 19.3 18.3 89 1.2 SE 20 26 11 14 1019.1 - 0.0
25/06:30am 20.5 21.5 17.7 84 1.7 S 9 17 5 9 1018.7 - 0.0
25/06:00am 20.6 20.1 17.8 84 1.7 S 17 22 9 12 1018.4 1018.3 0.0
25/05:30am 20.2 19.8 18.1 88 1.3 S 17 26 9 14 1018.1 - 0.0
25/05:00am 19.7 19.0 18.2 91 0.9 SSE 19 30 10 16 1018.0 - 0.0
25/04:30am 19.4 19.0 18.1 92 0.8 S 17 28 9 15 1018.0 - 0.0
25/04:17am 19.3 18.9 18.0 92 0.8 S 17 26 9 14 1018.0 - 0.0
25/04:00am 20.2 19.4 17.1 82 1.9 SSE 17 26 9 14 1018.0 - 0.0
25/03:30am 20.3 20.0 16.5 79 2.3 SE 13 22 7 12 1017.7 - 0.0
25/03:00am 21.3 21.6 16.9 76 2.7 S 11 19 6 10 1017.7 1017.6 0.0
25/02:30am 20.3 22.0 17.2 82 1.9 SSE 4 9 2 5 1017.9 - 0.0
25/02:00am 20.8 20.2 16.7 77 2.5 SSE 15 22 8 12 1018.2 - 0.0
25/01:30am 20.9 19.8 16.4 75 2.7 SSE 17 24 9 13 1018.1 - 0.0
25/01:00am 20.5 19.8 16.5 78 2.4 SSE 15 19 8 10 1018.3 - 0.0
25/12:30am 20.7 19.7 16.6 77 2.5 SSE 17 24 9 13 1018.4 - 0.0
25/12:00am 20.9 19.6 16.8 77 2.5 S 19 26 10 14 1018.5 1018.4 0.0
 
Date/Time
EST
Temp
°C
App
Temp
°C
Dew
Point
Rel
Hum
%
Delta-T
°C
Wind Press
QNH
hPa
Press
MSL
hPa
Rain
since 9 am
mm
Dir
 
Spd
km/h
Gust
km/h
Spd
kts
Gust
kts
24/11:30pm 21.5 20.5 16.5 73 3.0 S 17 26 9 14 1018.7 - 0.0
24/11:00pm 21.4 20.2 17.1 76 2.6 S 19 26 10 14 1019.0 - 0.0
24/10:30pm 21.6 21.1 17.0 75 2.8 SSE 15 20 8 11 1019.2 - 0.0
24/10:00pm 21.6 21.4 16.8 74 2.9 S 13 17 7 9 1019.1 - 0.0
24/09:30pm 21.7 21.8 16.6 73 3.1 S 11 15 6 8 1019.1 - 0.0
24/09:00pm 21.8 22.4 16.9 73 3.0 S 9 19 5 10 1018.6 1018.5 0.0
24/08:30pm 22.1 22.5 16.3 69 3.5 S 9 13 5 7 1018.6 - 0.0
24/08:00pm 22.3 22.7 16.2 68 3.7 SSE 9 11 5 6 1018.3 - 0.0
24/07:30pm 22.4 23.0 15.7 66 4.0 SSE 7 13 4 7 1017.9 - 0.0
24/07:00pm 21.5 21.7 15.8 70 3.4 SSE 9 11 5 6 1017.5 - 0.0
24/06:30pm 22.3 22.7 16.2 68 3.7 SSE 9 13 5 7 1017.3 - 0.0
24/06:00pm 22.7 23.0 15.9 65 4.1 SSE 9 13 5 7 1016.9 1016.8 0.0
24/05:30pm 23.6 22.6 15.6 61 4.8 SE 15 17 8 9 1016.7 - 0.0
24/05:00pm 24.6 22.9 14.7 54 5.9 E 17 20 9 11 1016.4 - 0.0
24/04:30pm 25.2 24.0 15.0 53 6.1 ENE 15 19 8 10 1016.2 - 0.0
24/04:00pm 25.6 25.0 14.5 50 6.6 ENE 11 19 6 10 1016.0 - 0.0
24/03:30pm 25.5 24.3 15.0 52 6.3 E 15 19 8 10 1016.1 - 0.0
24/03:00pm 25.9 25.2 15.5 52 6.3 E 13 22 7 12 1016.1 1016.0 0.0
24/02:30pm 24.9 24.7 15.8 57 5.5 ENE 11 19 6 10 1016.3 - 0.0
24/02:00pm 25.2 24.4 15.2 54 6.0 NE 13 17 7 9 1016.6 - 0.0
24/01:30pm 24.1 21.5 14.9 56 5.5 ENE 22 33 12 18 1017.2 - 0.0
24/01:00pm 25.5 25.0 15.8 55 5.9 SE 13 24 7 13 1017.1 - 0.0
24/12:30pm 25.1 24.2 15.9 56 5.6 SE 15 26 8 14 1017.6 - 0.0
24/12:00pm 24.5 23.9 15.7 58 5.3 S 13 22 7 12 1017.8 1017.7 0.0
24/11:30am 24.2 22.8 15.6 58 5.2 S 17 30 9 16 1018.3 - 0.0
24/11:00am 22.1 20.7 15.6 66 3.9 S 17 26 9 14 1018.4 - 0.0
24/10:30am 21.9 20.3 15.0 65 4.1 S 17 30 9 16 1018.6 - 0.0
24/10:00am 21.8 19.8 13.9 61 4.6 S 17 30 9 16 1018.5 - 0.0
24/09:30am 22.6 20.9 13.6 56 5.2 S 15 22 8 12 1018.3 - 0.0
24/09:00am 21.8 20.0 13.3 58 4.9 S 15 20 8 11 1018.1 1018.0 0.0
24/08:30am 20.2 18.2 13.8 66 3.7 SE 17 20 9 11 1017.6 - 0.0
24/08:00am 19.3 17.2 13.7 70 3.2 SE 17 22 9 12 1017.3 - 0.0
24/07:30am 17.5 14.4 13.4 77 2.3 SE 22 26 12 14 1016.8 - 0.0
24/07:00am 16.2 13.4 13.3 83 1.6 SE 20 24 11 13 1016.7 - 0.0
24/06:30am 16.1 12.6 13.4 84 1.5 SE 24 28 13 15 1016.4 - 0.0
24/06:00am 16.2 14.1 13.5 84 1.5 SE 17 20 9 11 1016.4 1016.3 0.0
24/05:30am 16.6 14.4 13.4 81 1.8 SE 17 22 9 12 1016.2 - 0.0
24/05:00am 16.5 13.0 13.5 82 1.7 SE 24 28 13 15 1016.0 - 0.0
24/04:30am 16.7 13.8 13.9 83 1.6 SE 22 26 12 14 1016.0 - 0.0
24/04:00am 16.7 14.2 14.1 85 1.5 SE 20 26 11 14 1016.0 - 0.0
24/03:30am 18.0 16.4 13.8 76 2.4 SE 15 24 8 13 1016.1 - 0.0
24/03:00am 19.3 17.9 13.5 69 3.3 SSE 13 20 7 11 1016.2 1016.1 0.0
24/02:30am 17.6 16.9 14.3 81 1.9 SSE 11 15 6 8 1016.4 - 0.0
24/02:00am 17.3 15.2 14.7 85 1.5 SE 19 20 10 11 1016.6 - 0.0
24/01:30am 19.2 17.7 14.2 73 2.9 S 15 22 8 12 1017.2 - 0.0
24/01:00am 17.4 15.8 15.0 86 1.4 SE 17 22 9 12 1017.5 - 0.0
24/12:30am 18.5 17.5 14.7 78 2.2 SSE 13 19 7 10 1017.7 - 0.0
24/12:00am 17.5 16.3 15.1 86 1.4 SE 15 19 8 10 1017.9 1017.8 0.0
 
Date/Time
EST
Temp
°C
App
Temp
°C
Dew
Point
Rel
Hum
%
Delta-T
°C
Wind Press
QNH
hPa
Press
MSL
hPa
Rain
since 9 am
mm
Dir
 
Spd
km/h
Gust
km/h
Spd
kts
Gust
kts
23/11:30pm 18.8 17.5 14.8 77 2.3 S 15 22 8 12 1018.0 - 0.0
23/11:00pm 20.0 18.7 14.9 72 3.0 S 15 22 8 12 1018.2 - 0.0
23/10:30pm 20.1 18.7 14.6 70 3.2 S 15 26 8 14 1018.1 - 0.0
23/10:00pm 20.1 19.0 14.4 69 3.3 S 13 20 7 11 1018.2 - 0.0
23/09:30pm 20.3 18.7 13.9 66 3.7 S 15 22 8 12 1018.2 - 0.0
23/09:00pm 20.7 18.6 13.5 63 4.1 S 17 26 9 14 1018.0 1017.9 0.0
23/08:30pm 20.3 18.3 13.9 66 3.7 S 17 24 9 13 1017.6 - 0.0
23/08:00pm 20.7 19.0 13.7 64 4.0 SSE 15 22 8 12 1017.3 - 0.0
23/07:30pm 20.9 18.3 13.8 64 4.1 S 20 32 11 17 1016.9 - 0.0
23/07:00pm 21.1 18.6 13.6 62 4.3 SSE 19 28 10 15 1016.7 - 0.0
23/06:30pm 20.9 18.9 13.8 64 4.1 SSE 17 24 9 13 1016.5 - 0.0
23/06:00pm 21.3 19.4 15.2 68 3.6 SE 19 26 10 14 1016.2 1016.1 0.0
23/05:30pm 22.5 19.2 15.1 63 4.4 SE 26 32 14 17 1015.8 - 0.0
23/05:00pm 23.3 20.0 14.9 59 5.0 SE 26 32 14 17 1015.4 - 0.0
23/04:30pm 23.9 19.0 13.6 52 6.0 SE 32 37 17 20 1015.1 - 0.0
23/04:00pm 24.9 20.5 13.0 47 6.9 SE 28 37 15 20 1014.9 - 0.0
23/03:30pm 25.4 21.3 11.4 41 7.9 SE 24 30 13 16 1014.9 - 0.0
23/03:00pm 24.8 21.9 12.9 47 6.9 ESE 20 26 11 14 1014.9 1014.8 0.0
23/02:30pm 25.6 21.3 11.9 42 7.8 E 26 33 14 18 1015.0 - 0.0
23/02:00pm 25.5 22.3 11.3 41 8.0 E 19 26 10 14 1015.2 - 0.0
23/01:30pm 26.2 22.9 12.8 43 7.8 SE 22 30 12 16 1015.4 - 0.0
23/01:00pm 25.7 21.9 12.3 43 7.7 SE 24 30 13 16 1015.7 - 0.0
23/12:30pm 25.0 21.1 12.2 44 7.3 SSE 24 33 13 18 1016.1 - 0.0
23/12:00pm 25.9 22.2 12.6 43 7.7 SSE 24 32 13 17 1016.5 1016.4 0.0
23/11:30am 25.8 23.2 13.1 45 7.4 SSE 19 28 10 15 1016.9 - 0.0
23/11:00am 24.5 21.9 13.7 51 6.3 SSE 20 30 11 16 1017.4 - 0.0
23/10:30am 24.1 21.7 14.3 54 5.8 SSE 20 32 11 17 1017.8 - 0.0
23/10:00am 23.4 21.4 14.0 55 5.5 S 17 26 9 14 1018.0 - 0.0
23/09:30am 22.8 20.7 13.7 56 5.3 S 17 26 9 14 1018.2 - 0.0
23/09:00am 21.9 19.1 13.2 57 5.0 SE 20 26 11 14 1018.2 1018.1 0.0
23/08:30am 18.8 16.0 13.1 69 3.2 SE 20 26 11 14 1018.2 - 0.0

Other Formats:

Comma delimited format used in spreadsheet applications
http://www.bom.gov.au/fwo/IDQ60801/IDQ60801.94287.axf

JavaScript Object Notation format (JSON) in row-major order
http://www.bom.gov.au/fwo/IDQ60801/IDQ60801.94287.json